N417CB KLGB-KSMO
Flight info
| Callsign | N417CB |
|---|---|
| Flight time | N/A |
| Altitude | 5000 |
| Route | |
| Aircraft | SR22/L-VGD/C |
Departure
| Time | 2026-05-07 02:50 |
|---|---|
| Airport | Long Beach International Airport (KLGB) |
Arrival
| Time | N/A |
|---|---|
| Airport | Santa Monica Municipal Airport (KSMO) |
| Time | Latitude | Longitude | Altitude | Speed | Heading |
|---|---|---|---|---|---|
| 2026-05-07 02:50 | 33.72915 | -118.15899 | 2716 ft | 141 kts | 176° |
| 2026-05-07 02:50 | 33.71936 | -118.15816 | 2985 ft | 143 kts | 176° |
| 2026-05-07 02:51 | 33.70932 | -118.15744 | 3220 ft | 145 kts | 176° |
| 2026-05-07 02:51 | 33.69915 | -118.15680 | 3466 ft | 147 kts | 177° |
| 2026-05-07 02:51 | 33.68885 | -118.15620 | 3711 ft | 149 kts | 177° |
| 2026-05-07 02:51 | 33.67846 | -118.15556 | 3949 ft | 150 kts | 177° |
| 2026-05-07 02:52 | 33.66844 | -118.15832 | 4177 ft | 150 kts | 212° |
| 2026-05-07 02:52 | 33.65827 | -118.16075 | 4426 ft | 154 kts | 168° |
| 2026-05-07 02:52 | 33.64793 | -118.15731 | 4666 ft | 155 kts | 163° |
| 2026-05-07 02:52 | 33.63746 | -118.15390 | 4917 ft | 156 kts | 163° |
| 2026-05-07 02:53 | 33.62668 | -118.15044 | 4983 ft | 169 kts | 165° |
| 2026-05-07 02:53 | 33.61492 | -118.14666 | 4991 ft | 178 kts | 164° |
| 2026-05-07 02:53 | 33.60274 | -118.14251 | 4988 ft | 185 kts | 157° |
| 2026-05-07 02:53 | 33.59337 | -118.13244 | 4994 ft | 184 kts | 115° |
| 2026-05-07 02:54 | 33.59188 | -118.11768 | 4988 ft | 180 kts | 73° |
| 2026-05-07 02:54 | 33.59574 | -118.10912 | 4991 ft | 176 kts | 45° |
| 2026-05-07 02:54 | 33.60643 | -118.10309 | 4991 ft | 173 kts | 2° |
| 2026-05-07 02:54 | 33.61761 | -118.10761 | 4987 ft | 174 kts | 324° |
| 2026-05-07 02:55 | 33.63000 | -118.11992 | 4988 ft | 175 kts | 321° |
| 2026-05-07 02:55 | 33.63631 | -118.12626 | 4989 ft | 175 kts | 321° |
| 2026-05-07 02:55 | 33.64554 | -118.13553 | 4986 ft | 175 kts | 321° |
| 2026-05-07 02:55 | 33.65488 | -118.14491 | 4989 ft | 175 kts | 321° |
| 2026-05-07 02:56 | 33.66458 | -118.15355 | 4975 ft | 174 kts | 336° |
| 2026-05-07 02:56 | 33.67643 | -118.15441 | 4993 ft | 174 kts | 10° |
| 2026-05-07 02:56 | 33.68821 | -118.15126 | 4994 ft | 173 kts | 11° |
| 2026-05-07 02:56 | 33.69999 | -118.14811 | 4999 ft | 173 kts | 11° |
| 2026-05-07 02:57 | 33.71175 | -118.14495 | 4999 ft | 173 kts | 11° |
| 2026-05-07 02:57 | 33.72351 | -118.14178 | 4999 ft | 174 kts | 11° |
| 2026-05-07 02:57 | 33.73532 | -118.13861 | 4999 ft | 174 kts | 11° |
| 2026-05-07 02:57 | 33.74716 | -118.13544 | 5003 ft | 175 kts | 11° |
| 2026-05-07 02:58 | 33.75901 | -118.13224 | 5000 ft | 174 kts | 11° |
| 2026-05-07 02:58 | 33.77084 | -118.12904 | 4995 ft | 174 kts | 11° |
| 2026-05-07 02:58 | 33.78261 | -118.12581 | 4998 ft | 174 kts | 11° |
| 2026-05-07 02:58 | 33.79444 | -118.12259 | 4999 ft | 174 kts | 11° |
| 2026-05-07 02:59 | 33.80623 | -118.11936 | 5001 ft | 174 kts | 11° |
| 2026-05-07 02:59 | 33.81805 | -118.11610 | 5003 ft | 174 kts | 11° |
| 2026-05-07 02:59 | 33.82990 | -118.11285 | 5003 ft | 175 kts | 11° |
| 2026-05-07 02:59 | 33.84178 | -118.10962 | 5000 ft | 175 kts | 11° |
| 2026-05-07 03:00 | 33.85365 | -118.10638 | 5001 ft | 175 kts | 11° |
| 2026-05-07 03:00 | 33.86551 | -118.10314 | 5001 ft | 175 kts | 11° |
| 2026-05-07 03:00 | 33.87734 | -118.09986 | 5000 ft | 175 kts | 11° |
| 2026-05-07 03:00 | 33.88919 | -118.09652 | 4999 ft | 175 kts | 12° |
| 2026-05-07 03:01 | 33.90095 | -118.09317 | 5003 ft | 174 kts | 11° |
| 2026-05-07 03:01 | 33.91278 | -118.09141 | 4993 ft | 174 kts | 1° |
| 2026-05-07 03:01 | 33.92486 | -118.09074 | 4989 ft | 174 kts | 1° |
| 2026-05-07 03:01 | 33.93697 | -118.09010 | 5007 ft | 174 kts | 1° |
| 2026-05-07 03:02 | 33.94907 | -118.08943 | 5008 ft | 174 kts | 1° |
| 2026-05-07 03:02 | 33.96119 | -118.08876 | 5005 ft | 174 kts | 1° |
| 2026-05-07 03:02 | 33.97330 | -118.08806 | 5015 ft | 174 kts | 1° |
| 2026-05-07 03:02 | 33.98539 | -118.08737 | 5020 ft | 175 kts | 1° |
| 2026-05-07 03:03 | 33.99756 | -118.08667 | 5023 ft | 175 kts | 1° |
| 2026-05-07 03:03 | 34.00975 | -118.08602 | 5026 ft | 175 kts | 1° |
| 2026-05-07 03:03 | 34.02195 | -118.08536 | 5022 ft | 175 kts | 1° |
| 2026-05-07 03:03 | 34.03413 | -118.08471 | 5016 ft | 175 kts | 1° |
| 2026-05-07 03:04 | 34.04633 | -118.08406 | 5016 ft | 175 kts | 1° |
| 2026-05-07 03:04 | 34.05846 | -118.08337 | 5018 ft | 174 kts | 1° |
| 2026-05-07 03:04 | 34.07051 | -118.08268 | 5013 ft | 174 kts | 1° |
| 2026-05-07 03:04 | 34.08245 | -118.08200 | 5021 ft | 174 kts | 1° |
| 2026-05-07 03:05 | 34.09463 | -118.08135 | 4967 ft | 177 kts | 2° |
| 2026-05-07 03:05 | 34.10728 | -118.08068 | 4774 ft | 185 kts | 1° |
| 2026-05-07 03:05 | 34.12015 | -118.07996 | 4569 ft | 189 kts | 1° |
| 2026-05-07 03:05 | 34.13359 | -118.07938 | 4347 ft | 192 kts | 357° |
| 2026-05-07 03:06 | 34.14548 | -118.08514 | 4292 ft | 187 kts | 319° |
| 2026-05-07 03:06 | 34.15200 | -118.09823 | 4289 ft | 184 kts | 283° |
| 2026-05-07 03:06 | 34.15264 | -118.11355 | 4294 ft | 182 kts | 271° |
| 2026-05-07 03:06 | 34.15289 | -118.12881 | 4292 ft | 181 kts | 273° |
| 2026-05-07 03:07 | 34.15326 | -118.14398 | 4287 ft | 180 kts | 272° |
| 2026-05-07 03:07 | 34.15360 | -118.15905 | 4293 ft | 179 kts | 273° |
| 2026-05-07 03:07 | 34.15393 | -118.17408 | 4287 ft | 178 kts | 272° |
| 2026-05-07 03:07 | 34.15424 | -118.18877 | 4277 ft | 176 kts | 273° |
| 2026-05-07 03:08 | 34.15457 | -118.20354 | 4282 ft | 176 kts | 273° |
| 2026-05-07 03:08 | 34.15490 | -118.21829 | 4285 ft | 176 kts | 273° |
| 2026-05-07 03:08 | 34.15523 | -118.23313 | 4289 ft | 178 kts | 273° |
| 2026-05-07 03:08 | 34.15554 | -118.24812 | 4290 ft | 178 kts | 273° |
| 2026-05-07 03:09 | 34.15545 | -118.26310 | 4289 ft | 180 kts | 264° |
| 2026-05-07 03:09 | 34.15087 | -118.27716 | 4288 ft | 182 kts | 239° |
| 2026-05-07 03:09 | 34.14298 | -118.28917 | 4290 ft | 183 kts | 232° |
| 2026-05-07 03:09 | 34.13501 | -118.30116 | 4291 ft | 183 kts | 233° |
| 2026-05-07 03:10 | 34.12707 | -118.31320 | 4291 ft | 183 kts | 233° |
| 2026-05-07 03:10 | 34.11916 | -118.32516 | 4288 ft | 182 kts | 233° |
| 2026-05-07 03:10 | 34.11120 | -118.33709 | 4292 ft | 183 kts | 233° |
| 2026-05-07 03:10 | 34.10267 | -118.34850 | 4291 ft | 184 kts | 225° |
| 2026-05-07 03:11 | 34.09358 | -118.35906 | 4289 ft | 184 kts | 226° |